Time;durP1;ratioP1;P1;durP2;ratioP2;P2;SDS_P1;SDS_P2;PMS_P1;PMS_P2;Temp;Humidity;BMP_temperature;BMP_pressure;BME280_temperature;BME280_humidity;BME280_pressure;Samples;Min_cycle;Max_cycle;Signal;HPM_P1;HPM_P2
2021/06/28 00:00:17;;;;;;;11.90;9.40;;;;;;;19.13;100.00;101451.03;3591176;39;20381;-62
2021/06/28 00:02:44;;;;;;;10.82;9.27;;;;;;;19.07;100.00;101445.25;3591422;39;20354;-62
2021/06/28 00:05:13;;;;;;;12.35;10.27;;;;;;;19.04;100.00;101444.75;3590050;39;20084;-62
2021/06/28 00:07:40;;;;;;;;;;;;;;;19.11;100.00;101447.63;3591350;39;20054;-62
2021/06/28 00:10:10;;;;;;;13.15;9.82;;;;;;;19.13;100.00;101437.41;3591134;39;19936;-62
2021/06/28 00:12:38;;;;;;;11.90;10.25;;;;;;;19.26;100.00;101432.19;3591930;39;20048;-63
2021/06/28 00:15:08;;;;;;;12.95;11.57;;;;;;;19.13;100.00;101437.41;3590231;39;20060;-62
2021/06/28 00:17:35;;;;;;;12.75;10.43;;;;;;;19.15;100.00;101436.16;3591554;39;20313;-62
2021/06/28 00:20:01;;;;;;;12.02;10.20;;;;;;;19.11;100.00;101431.25;3591369;39;20045;-62
2021/06/28 00:22:28;;;;;;;13.02;10.43;;;;;;;19.09;100.00;101431.44;3591483;39;20054;-62
2021/06/28 00:24:54;;;;;;;12.90;11.35;;;;;;;19.07;100.00;101433.50;3591870;39;20046;-62
2021/06/28 00:27:23;;;;;;;12.32;11.02;;;;;;;19.11;100.00;101423.06;3590711;39;20047;-62
2021/06/28 00:29:50;;;;;;;14.95;12.57;;;;;;;19.01;100.00;101428.75;3591927;39;20460;-63
2021/06/28 00:32:16;;;;;;;15.65;12.45;;;;;;;18.99;100.00;101422.59;3590269;39;20090;-63
2021/06/28 00:34:43;;;;;;;15.23;12.52;;;;;;;19.02;100.00;101430.44;3591104;39;20044;-62
2021/06/28 00:37:09;;;;;;;17.95;13.48;;;;;;;18.97;100.00;101427.41;3591368;39;20052;-63
2021/06/28 00:39:35;;;;;;;17.02;13.63;;;;;;;18.97;100.00;101430.13;3591403;39;20060;-63
2021/06/28 00:42:02;;;;;;;14.07;12.32;;;;;;;19.08;100.00;101429.75;3591469;39;20068;-63
2021/06/28 00:44:30;;;;;;;17.02;12.40;;;;;;;19.02;100.00;101427.72;3592385;39;20045;-62
2021/06/28 00:46:56;;;;;;;16.13;14.43;;;;;;;18.99;100.00;101430.78;3591659;39;20066;-63
2021/06/28 00:49:23;;;;;;;16.45;13.15;;;;;;;18.94;100.00;101419.59;3590547;39;20036;-62
2021/06/28 00:51:49;;;;;;;15.55;13.30;;;;;;;18.96;100.00;101412.06;3592832;39;20310;-63
2021/06/28 00:54:16;;;;;;;15.93;13.80;;;;;;;19.02;100.00;101408.63;3590937;39;20040;-63
2021/06/28 00:56:42;;;;;;;15.98;13.73;;;;;;;18.81;100.00;101406.47;3591593;39;20072;-62
2021/06/28 00:59:09;;;;;;;17.85;14.80;;;;;;;18.73;100.00;101410.94;3590541;39;20058;-62
2021/06/28 01:01:37;;;;;;;17.73;14.30;;;;;;;18.62;100.00;101415.91;3590798;39;20408;-63
2021/06/28 01:04:04;;;;;;;16.20;14.32;;;;;;;18.53;100.00;101409.63;3589885;39;20059;-63
2021/06/28 01:06:31;;;;;;;17.30;14.82;;;;;;;18.62;100.00;101415.91;3591379;39;20049;-64
2021/06/28 01:08:57;;;;;;;16.67;13.35;;;;;;;18.69;100.00;101403.28;3591409;39;20074;-63
2021/06/28 01:11:24;;;;;;;21.92;15.30;;;;;;;18.59;100.00;101408.94;3590281;39;20402;-63
2021/06/28 01:13:51;;;;;;;19.23;15.20;;;;;;;18.52;100.00;101407.94;3592064;39;20052;-63
2021/06/28 01:16:19;;;;;;;22.40;15.20;;;;;;;18.51;100.00;101401.63;3590797;39;20043;-63
2021/06/28 01:18:47;;;;;;;20.67;14.93;;;;;;;18.48;100.00;101401.16;3591543;39;20051;-63
2021/06/28 01:21:15;;;;;;;17.60;15.63;;;;;;;18.44;100.00;101399.78;3590459;39;20068;-62
2021/06/28 01:23:43;;;;;;;16.27;14.43;;;;;;;18.49;100.00;101398.25;3591413;39;20411;-64
2021/06/28 01:26:12;;;;;;;16.83;14.27;;;;;;;18.45;100.00;101402.34;3589436;39;20146;-63
2021/06/28 01:28:40;;;;;;;20.70;15.23;;;;;;;18.39;100.00;101401.16;3590557;39;20040;-63
2021/06/28 01:31:10;;;;;;;19.60;15.48;;;;;;;18.47;100.00;101394.00;3589383;39;20036;-63
2021/06/28 01:33:37;;;;;;;17.73;14.23;;;;;;;18.43;100.00;101393.47;3591228;39;20050;-64
2021/06/28 01:36:04;;;;;;;20.30;15.10;;;;;;;18.33;100.00;101396.41;3590138;39;20062;-63
2021/06/28 01:38:31;;;;;;;16.73;13.93;;;;;;;18.37;100.00;101388.72;3591766;39;20038;-63
2021/06/28 01:41:00;;;;;;;17.75;13.73;;;;;;;18.37;100.00;101386.00;3591387;39;20370;-63
2021/06/28 01:43:26;;;;;;;17.48;14.85;;;;;;;18.38;100.00;101385.00;3590625;39;20054;-63
2021/06/28 01:45:54;;;;;;;17.35;14.70;;;;;;;18.35;100.00;101386.19;3591449;39;20485;-63
2021/06/28 01:48:21;;;;;;;16.50;14.55;;;;;;;18.29;100.00;101381.44;3590016;39;20052;-63
2021/06/28 01:50:49;;;;;;;19.65;15.32;;;;;;;18.28;100.00;101387.06;3591658;39;20056;-63
2021/06/28 01:53:15;;;;;;;16.30;14.05;;;;;;;18.32;100.00;101389.25;3591038;39;20413;-63
2021/06/28 01:55:43;;;;;;;18.05;13.82;;;;;;;18.14;100.00;101384.03;3591191;39;20051;-63
2021/06/28 01:58:13;;;;;;;16.17;13.50;;;;;;;18.11;100.00;101375.34;3590580;39;20114;-63
2021/06/28 02:00:43;;;;;;;17.23;14.48;;;;;;;18.04;100.00;101373.31;3591600;39;20048;-64
2021/06/28 02:03:12;;;;;;;17.45;14.30;;;;;;;18.04;100.00;101378.75;3592074;39;20051;-63
2021/06/28 02:05:41;;;;;;;15.98;13.57;;;;;;;17.86;100.00;101375.34;3591235;39;20055;-63
2021/06/28 02:08:13;;;;;;;16.98;13.35;;;;;;;17.79;100.00;101375.19;3590660;39;20335;-64
2021/06/28 02:10:41;;;;;;;17.35;13.95;;;;;;;17.67;100.00;101382.00;3590936;39;20046;-64
2021/06/28 02:13:08;;;;;;;14.27;12.63;;;;;;;17.65;100.00;101370.41;3590390;39;20036;-63
2021/06/28 02:15:35;;;;;;;16.45;13.68;;;;;;;17.62;100.00;101370.75;3590711;39;20072;-63
2021/06/28 02:18:02;;;;;;;18.95;14.52;;;;;;;17.61;100.00;101366.34;3589921;39;20044;-63
2021/06/28 02:20:30;;;;;;;18.38;14.18;;;;;;;17.52;100.00;101363.63;3590972;39;20041;-63
2021/06/28 02:23:12;;;;;;;16.80;13.85;;;;;;;17.41;100.00;101357.66;3591324;39;20488;-64
2021/06/28 02:25:39;;;;;;;19.88;14.65;;;;;;;17.34;100.00;101365.63;3590873;39;20402;-63
2021/06/28 02:28:05;;;;;;;18.35;15.18;;;;;;;17.30;100.00;101356.97;3590579;39;20070;-63
2021/06/28 02:30:31;;;;;;;19.75;15.13;;;;;;;17.24;100.00;101354.06;3590386;39;20052;-63
2021/06/28 02:32:59;;;;;;;20.25;15.18;;;;;;;17.23;100.00;101355.94;3590857;39;20420;-63
2021/06/28 02:35:26;;;;;;;16.75;13.35;;;;;;;17.15;100.00;101356.78;3590847;39;20415;-63
2021/06/28 02:37:52;;;;;;;17.02;13.82;;;;;;;17.17;100.00;101362.88;3591101;39;20048;-63
2021/06/28 02:40:19;;;;;;;19.30;15.18;;;;;;;17.11;100.00;101365.44;3590014;39;20047;-63
2021/06/28 02:42:45;;;;;;;17.13;14.05;;;;;;;17.04;100.00;101370.69;3589512;39;20284;-62
2021/06/28 02:45:12;;;;;;;16.95;14.10;;;;;;;17.10;100.00;101380.91;3588380;39;20054;-62
2021/06/28 02:47:39;;;;;;;14.80;13.02;;;;;;;17.06;100.00;101379.50;3588725;39;20073;-63
2021/06/28 02:50:10;;;;;;;16.63;13.45;;;;;;;17.02;100.00;101375.44;3587546;39;20050;-63
2021/06/28 02:52:36;;;;;;;18.52;13.43;;;;;;;17.01;100.00;101376.47;3587959;39;20090;-63
2021/06/28 02:55:05;;;;;;;15.82;12.00;;;;;;;17.13;100.00;101386.00;3586417;39;20064;-62
2021/06/28 02:57:32;;;;;;;15.50;12.35;;;;;;;17.03;100.00;101396.16;3588026;39;20048;-61
2021/06/28 02:59:59;;;;;;;14.90;11.98;;;;;;;16.96;100.00;101389.69;3588947;39;20040;-61
2021/06/28 03:02:25;;;;;;;15.18;12.43;;;;;;;16.89;100.00;101394.09;3589145;39;20048;-61
2021/06/28 03:04:52;;;;;;;16.73;13.13;;;;;;;16.82;100.00;101408.31;3591394;39;20514;-62
2021/06/28 03:07:20;;;;;;;15.80;12.57;;;;;;;16.92;100.00;101410.09;3590442;39;20048;-62
2021/06/28 03:09:46;;;;;;;15.80;12.10;;;;;;;16.92;100.00;101404.66;3590098;39;20309;-62
2021/06/28 03:12:13;;;;;;;13.88;11.95;;;;;;;16.79;100.00;101397.75;3590505;39;20317;-62
2021/06/28 03:14:39;;;;;;;15.50;12.98;;;;;;;16.71;100.00;101397.75;3591066;39;20045;-62
2021/06/28 03:17:06;;;;;;;17.17;13.35;;;;;;;16.62;100.00;101393.25;3590167;39;20060;-62
2021/06/28 03:19:32;;;;;;;14.27;12.00;;;;;;;16.54;100.00;101385.94;3591013;39;20064;-62
2021/06/28 03:21:59;;;;;;;14.05;12.43;;;;;;;16.56;100.00;101400.22;3590904;39;20036;-63
2021/06/28 03:24:27;;;;;;;15.93;13.35;;;;;;;16.57;100.00;101395.63;3590654;39;20053;-62
2021/06/28 03:26:53;;;;;;;15.65;12.27;;;;;;;16.61;100.00;101397.84;3591829;39;20048;-62
2021/06/28 03:29:20;;;;;;;16.65;12.40;;;;;;;16.58;100.00;101402.78;3589798;39;20367;-61
2021/06/28 03:31:46;;;;;;;14.55;12.13;;;;;;;16.56;100.00;101404.78;3591357;39;20048;-62
2021/06/28 03:34:13;;;;;;;15.73;13.27;;;;;;;16.56;100.00;101394.78;3589669;39;20066;-62
2021/06/28 03:36:41;;;;;;;13.50;11.52;;;;;;;16.65;100.00;101398.38;3590053;39;20074;-61
2021/06/28 03:39:07;;;;;;;15.45;12.00;;;;;;;16.65;100.00;101403.81;3589579;39;20318;-62
2021/06/28 03:41:35;;;;;;;15.80;12.43;;;;;;;16.56;100.00;101400.22;3590573;39;20080;-62
2021/06/28 03:44:03;;;;;;;15.00;12.07;;;;;;;16.54;100.00;101409.53;3589691;39;20032;-62
2021/06/28 03:46:29;;;;;;;14.20;12.35;;;;;;;16.60;100.00;101411.63;3590135;39;20130;-62
2021/06/28 03:48:56;;;;;;;16.55;12.70;;;;;;;16.60;100.00;101406.19;3590207;39;20081;-61
2021/06/28 03:51:22;;;;;;;16.15;12.43;;;;;;;16.62;100.00;101404.13;3590165;39;20076;-63
2021/06/28 03:53:49;;;;;;;14.27;10.98;;;;;;;16.64;100.00;101396.69;3591480;39;20056;-62
2021/06/28 03:56:16;;;;;;;12.55;11.10;;;;;;;16.69;100.00;101405.19;3589989;39;20404;-62
2021/06/28 03:58:45;;;;;;;14.70;11.90;;;;;;;16.74;100.00;101402.84;3590303;39;20078;-62
2021/06/28 04:01:12;;;;;;;;;;;;;;;16.77;100.00;101397.09;3591277;39;20054;-62
2021/06/28 04:03:39;;;;;;;15.20;12.20;;;;;;;16.82;100.00;101399.31;3590113;39;20496;-62
2021/06/28 04:06:08;;;;;;;14.57;11.93;;;;;;;16.79;100.00;101386.88;3590489;39;20059;-62
2021/06/28 04:08:36;;;;;;;16.42;13.30;;;;;;;16.66;100.00;101394.66;3591868;39;20068;-62
2021/06/28 04:11:04;;;;;;;19.00;13.60;;;;;;;16.58;100.00;101390.03;3590949;39;20055;-62
2021/06/28 04:13:30;;;;;;;16.77;13.23;;;;;;;16.67;100.00;101396.34;3592083;39;20044;-62
2021/06/28 04:15:58;;;;;;;16.08;13.43;;;;;;;16.68;100.00;101395.34;3591750;39;20052;-62
2021/06/28 04:18:24;;;;;;;17.52;13.18;;;;;;;16.67;100.00;101401.78;3590442;39;20040;-63
2021/06/28 04:20:51;;;;;;;16.65;13.35;;;;;;;16.72;100.00;101393.16;3592410;39;20093;-62
2021/06/28 04:23:18;;;;;;;16.25;13.05;;;;;;;16.80;100.00;101390.47;3590279;39;20056;-62
2021/06/28 04:25:45;;;;;;;14.85;12.38;;;;;;;16.80;100.00;101385.03;3590718;39;20040;-62
2021/06/28 04:28:12;;;;;;;15.23;12.27;;;;;;;16.78;100.00;101376.19;3590290;39;20054;-62
2021/06/28 04:30:39;;;;;;;14.80;12.18;;;;;;;16.75;100.00;101371.91;3591831;39;20040;-62
2021/06/28 04:33:07;;;;;;;13.48;12.02;;;;;;;16.81;100.00;101371.28;3591110;39;20036;-61
2021/06/28 04:35:33;;;;;;;16.83;13.38;;;;;;;16.76;100.00;101379.06;3591639;39;20399;-61
2021/06/28 04:38:00;;;;;;;15.38;12.02;;;;;;;16.86;100.00;101372.63;3590930;39;20052;-62
2021/06/28 04:40:28;;;;;;;16.08;12.60;;;;;;;16.95;100.00;101371.69;3591438;39;20047;-61
2021/06/28 04:42:56;;;;;;;15.82;12.63;;;;;;;17.01;100.00;101376.47;3590751;39;20056;-62
2021/06/28 04:45:24;;;;;;;16.00;12.68;;;;;;;17.10;100.00;101383.63;3591210;39;20305;-62
2021/06/28 04:47:51;;;;;;;13.10;11.48;;;;;;;17.17;100.00;101389.25;3591930;39;20400;-62
2021/06/28 04:50:22;;;;;;;17.52;12.73;;;;;;;17.12;100.00;101378.00;3590568;39;20044;-62
2021/06/28 04:52:50;;;;;;;16.98;12.40;;;;;;;17.15;100.00;101381.25;3592154;39;20055;-62
2021/06/28 04:55:17;;;;;;;16.58;12.35;;;;;;;17.14;100.00;101381.44;3590339;39;20086;-62
2021/06/28 04:57:44;;;;;;;15.30;12.63;;;;;;;17.34;100.00;101387.41;3589583;39;20051;-62
2021/06/28 05:00:13;;;;;;;15.60;12.35;;;;;;;17.78;100.00;101383.50;3587267;39;20056;-61
2021/06/28 05:02:40;;;;;;;15.68;12.07;;;;;;;17.88;100.00;101380.63;3591570;39;20391;-61
2021/06/28 05:05:07;;;;;;;15.65;11.82;;;;;;;17.79;100.00;101375.19;3590941;39;20354;-62
2021/06/28 05:07:35;;;;;;;14.65;11.77;;;;;;;18.73;100.00;101375.47;3591625;39;20060;-62
2021/06/28 05:10:02;;;;;;;14.23;11.45;;;;;;;19.38;100.00;101378.06;3591408;39;20403;-63
2021/06/28 05:12:28;;;;;;;15.73;11.35;;;;;;;20.61;100.00;101376.00;3590181;39;20048;-62
2021/06/28 05:14:55;;;;;;;11.63;10.15;;;;;;;20.41;100.00;101367.56;3591711;39;20083;-62
2021/06/28 05:17:21;;;;;;;13.77;10.13;;;;;;;19.32;100.00;101365.13;3591450;39;20063;-62
2021/06/28 05:19:48;;;;;;;17.63;11.57;;;;;;;18.55;100.00;101369.41;3591702;39;20033;-63
2021/06/28 05:22:14;;;;;;;13.02;11.15;;;;;;;18.62;100.00;101369.56;3590693;39;20067;-62
2021/06/28 05:24:42;;;;;;;16.67;11.13;;;;;;;18.48;100.00;101369.28;3590801;39;20616;-62
2021/06/28 05:27:10;;;;;;;14.27;10.20;;;;;;;18.34;100.00;101367.28;3589959;39;20394;-62
2021/06/28 05:29:36;;;;;;;13.07;10.95;;;;;;;18.43;100.00;101358.03;3591710;39;20050;-62
2021/06/28 05:32:03;;;;;;;14.45;10.85;;;;;;;18.36;100.00;101357.06;3590861;39;20059;-62
2021/06/28 05:34:30;;;;;;;12.75;10.68;;;;;;;18.45;100.00;101363.34;3591230;39;20088;-61
2021/06/28 05:36:56;;;;;;;15.07;12.25;;;;;;;18.56;100.00;101366.53;3591544;39;20038;-62
2021/06/28 05:39:23;;;;;;;12.98;11.30;;;;;;;18.65;100.00;101358.31;3589874;39;20084;-62
2021/06/28 05:41:50;;;;;;;12.27;10.93;;;;;;;18.77;100.00;101356.91;3591219;39;20080;-61
2021/06/28 05:44:17;;;;;;;12.95;11.32;;;;;;;18.63;100.00;101365.81;3590788;39;20052;-62
2021/06/28 05:46:43;;;;;;;13.35;11.55;;;;;;;18.62;100.00;101366.84;3591708;40;20056;-62
2021/06/28 05:49:10;;;;;;;14.65;10.75;;;;;;;18.49;100.00;101365.53;3590148;39;20048;-62
2021/06/28 05:51:37;;;;;;;16.55;11.55;;;;;;;18.61;100.00;101367.88;3591087;39;20074;-63
2021/06/28 05:54:04;;;;;;;14.55;11.35;;;;;;;18.78;100.00;101358.59;3589001;39;20354;-62
2021/06/28 05:56:30;;;;;;;12.45;11.13;;;;;;;19.01;100.00;101358.66;3590420;39;20056;-62
2021/06/28 05:58:58;;;;;;;12.00;10.68;;;;;;;18.97;100.00;101367.41;3590358;39;20066;-62
2021/06/28 06:01:25;;;;;;;14.00;11.23;;;;;;;18.99;100.00;101368.06;3589171;39;20067;-62
2021/06/28 06:03:51;;;;;;;13.40;10.80;;;;;;;19.11;100.00;101353.00;3590236;39;20333;-63
2021/06/28 06:06:18;;;;;;;14.13;10.48;;;;;;;19.32;100.00;101357.78;3589591;39;20044;-62
2021/06/28 06:08:44;;;;;;;12.95;10.07;;;;;;;19.39;100.00;101357.88;3589717;39;20039;-62
2021/06/28 06:11:11;;;;;;;11.80;10.25;;;;;;;19.51;100.00;101358.34;3586503;39;20053;-62
2021/06/28 06:13:37;;;;;;;11.50;9.30;;;;;;;19.48;100.00;101354.09;3589912;39;20467;-63
2021/06/28 06:16:05;;;;;;;18.55;10.77;;;;;;;19.39;100.00;101357.88;3589409;39;20346;-62
2021/06/28 06:18:32;;;;;;;11.17;9.83;;;;;;;19.71;100.00;101369.59;3590403;39;20071;-63
2021/06/28 06:20:58;;;;;;;11.30;9.70;;;;;;;19.82;100.00;101366.44;3590323;39;20048;-62
2021/06/28 06:23:25;;;;;;;11.35;9.95;;;;;;;19.91;100.00;101364.50;3590583;39;20092;-63
2021/06/28 06:25:51;;;;;;;11.60;10.25;;;;;;;20.05;100.00;101366.41;3590988;40;20051;-63
2021/06/28 06:28:18;;;;;;;14.50;9.73;;;;;;;20.30;100.00;101368.84;3589911;39;20068;-63
2021/06/28 06:30:44;;;;;;;10.50;9.40;;;;;;;20.51;100.00;101359.91;3590301;39;20062;-64
2021/06/28 06:33:12;;;;;;;12.50;9.80;;;;;;;21.16;100.00;101362.84;3589510;39;20050;-63
2021/06/28 06:35:39;;;;;;;10.43;9.37;;;;;;;21.41;100.00;101356.97;3590532;39;20417;-63
2021/06/28 06:38:06;;;;;;;11.13;9.90;;;;;;;21.37;100.00;101358.41;3590394;39;20055;-63
2021/06/28 06:40:33;;;;;;;11.93;10.30;;;;;;;21.28;100.00;101353.06;3591123;39;20060;-63
2021/06/28 06:43:00;;;;;;;10.63;9.27;;;;;;;21.48;100.00;101352.38;3589289;39;20322;-63
2021/06/28 06:45:27;;;;;;;11.50;10.20;;;;;;;21.61;100.00;101351.69;3590476;39;20051;-64
2021/06/28 06:47:54;;;;;;;13.43;10.27;;;;;;;21.60;100.00;101348.13;3590618;39;20044;-62
2021/06/28 06:50:21;;;;;;;11.70;9.52;;;;;;;21.62;100.00;101339.72;3588684;39;21962;-63
2021/06/28 06:52:49;;;;;;;11.27;9.80;;;;;;;21.69;100.00;101346.09;3590479;39;20072;-63
2021/06/28 06:55:16;;;;;;;11.05;9.85;;;;;;;21.83;100.00;101336.06;3587810;39;20060;-63
2021/06/28 06:57:43;;;;;;;11.43;10.07;;;;;;;21.94;100.00;101330.06;3590398;39;20047;-62
2021/06/28 07:00:13;;;;;;;13.02;10.25;;;;;;;22.29;100.00;101335.56;3590054;39;20060;-62
2021/06/28 07:02:40;;;;;;;13.35;10.75;;;;;;;22.15;100.00;101339.25;3588409;39;20064;-62
2021/06/28 07:05:07;;;;;;;10.93;9.80;;;;;;;22.02;100.00;101329.88;3587355;39;20079;-62
2021/06/28 07:07:36;;;;;;;11.95;10.75;;;;;;;22.26;100.00;101335.97;3589659;39;20049;-63
2021/06/28 07:10:03;;;;;;;13.18;10.30;;;;;;;22.48;100.00;101333.13;3589397;39;20059;-64
2021/06/28 07:12:30;;;;;;;11.63;9.68;;;;;;;22.53;100.00;101326.00;3589918;39;20076;-62
2021/06/28 07:14:56;;;;;;;13.35;10.15;;;;;;;22.65;100.00;101323.50;3590904;39;20096;-62
2021/06/28 07:17:23;;;;;;;13.18;10.98;;;;;;;22.48;100.00;101327.66;3589690;39;20078;-63
2021/06/28 07:19:49;;;;;;;13.85;9.73;;;;;;;22.83;100.00;101322.09;3590449;39;20040;-62
2021/06/28 07:22:16;;;;;;;12.50;10.05;;;;;;;22.85;100.00;101319.97;3590582;39;20052;-63
2021/06/28 07:24:44;;;;;;;13.45;9.50;;;;;;;22.97;100.00;101325.72;3590300;39;20293;-62
2021/06/28 07:27:11;;;;;;;12.48;9.63;;;;;;;23.18;100.00;101317.34;3590211;39;20110;-63
2021/06/28 07:29:38;;;;;;;14.02;10.40;;;;;;;23.18;100.00;101311.84;3590430;39;20434;-62
2021/06/28 07:32:05;;;;;;;10.85;9.35;;;;;;;23.54;100.00;101320.75;3589030;39;20059;-62
2021/06/28 07:34:31;;;;;;;14.23;10.50;;;;;;;23.54;100.00;101318.00;3588403;39;20048;-62
2021/06/28 07:36:58;;;;;;;14.55;10.50;;;;;;;23.50;100.00;101325.84;3592055;39;20055;-62
2021/06/28 07:39:24;;;;;;;14.02;10.43;;;;;;;23.54;100.00;101329.88;3591030;39;20062;-63
2021/06/28 07:41:52;;;;;;;14.70;10.07;;;;;;;23.47;100.00;101333.63;3592037;39;20309;-62
2021/06/28 07:44:21;;;;;;;11.40;10.20;;;;;;;23.51;100.00;101330.28;3590954;39;20349;-62
2021/06/28 07:46:48;;;;;;;13.15;10.68;;;;;;;23.74;100.00;101318.84;3590918;39;20157;-63
2021/06/28 07:49:15;;;;;;;12.40;9.73;;;;;;;23.97;100.00;101320.34;3591114;39;20312;-62
2021/06/28 07:51:43;;;;;;;14.27;10.57;;;;;;;23.76;100.00;101325.00;3591392;39;20080;-61
2021/06/28 07:54:10;;;;;;;11.55;10.35;;;;;;;24.12;100.00;101320.09;3591154;39;20056;-62
2021/06/28 07:56:37;;;;;;;12.75;10.30;;;;;;;24.24;100.00;101323.03;3592642;39;20307;-61
2021/06/28 07:59:05;;;;;;;11.63;9.77;;;;;;;24.07;100.00;101329.00;3591383;39;20425;-62
2021/06/28 08:01:32;;;;;;;12.48;9.43;;;;;;;24.25;100.00;101322.00;3591630;39;20128;-63
2021/06/28 08:03:58;;;;;;;10.18;9.18;;;;;;;24.09;100.00;101318.63;3591786;39;20056;-62
2021/06/28 08:06:25;;;;;;;10.88;9.50;;;;;;;24.20;100.00;101324.53;3591303;39;20318;-62
2021/06/28 08:08:51;;;;;;;12.60;9.73;;;;;;;24.17;100.00;101324.97;3591715;39;20059;-62
2021/06/28 08:11:20;;;;;;;12.77;10.52;;;;;;;24.12;100.00;101320.94;3590323;39;20040;-62
2021/06/28 08:13:48;;;;;;;;;;;;;;;24.24;100.00;101326.63;3592350;39;20057;-62
2021/06/28 08:16:17;;;;;;;15.40;10.60;;;;;;;24.13;100.00;101319.03;3591377;39;19938;-62
2021/06/28 08:18:44;;;;;;;13.43;11.40;;;;;;;23.99;100.00;101329.22;3592004;39;20040;-63
2021/06/28 08:21:12;;;;;;;14.55;10.40;;;;;;;24.14;100.00;101326.22;3591153;39;20060;-62
2021/06/28 08:23:39;;;;;;;12.20;10.60;;;;;;;24.41;100.00;101324.25;3591835;39;20051;-63
2021/06/28 08:26:05;;;;;;;11.45;10.07;;;;;;;25.11;100.00;101326.25;3590652;39;20428;-63
2021/06/28 08:30:59;;;;;;;13.77;10.48;;;;;;;24.91;100.00;101326.41;3623951;22;20044;-62
2021/06/28 08:33:27;;;;;;;14.18;11.07;;;;;;;25.09;100.00;101322.03;3600935;39;20075;-63
2021/06/28 08:35:54;;;;;;;15.23;10.60;;;;;;;25.06;100.00;101323.34;3601861;39;20054;-62
2021/06/28 08:38:21;;;;;;;13.93;11.05;;;;;;;24.92;100.00;101327.22;3602327;39;20124;-63
2021/06/28 08:40:48;;;;;;;11.98;10.63;;;;;;;25.04;100.00;101327.38;3600874;39;20050;-63
2021/06/28 08:43:15;;;;;;;11.45;9.07;;;;;;;25.06;100.00;101327.97;3600923;39;20040;-62
2021/06/28 08:45:43;;;;;;;11.13;10.02;;;;;;;25.00;100.00;101335.25;3603341;39;20048;-62
2021/06/28 08:48:10;;;;;;;11.95;9.98;;;;;;;25.46;100.00;101341.53;3601989;39;20080;-63
2021/06/28 08:50:40;;;;;;;9.65;8.65;;;;;;;25.80;100.00;101344.88;3602209;39;20054;-63
2021/06/28 08:53:08;;;;;;;10.77;8.77;;;;;;;25.68;100.00;101331.81;3601191;39;20048;-62
2021/06/28 08:55:36;;;;;;;10.07;8.77;;;;;;;25.77;100.00;101329.59;3602421;39;20298;-62
2021/06/28 08:58:03;;;;;;;12.07;8.85;;;;;;;26.21;100.00;101335.97;3601478;39;20063;-63
2021/06/28 09:00:30;;;;;;;9.05;8.15;;;;;;;26.29;100.00;101334.00;3601113;39;20382;-63
2021/06/28 09:02:59;;;;;;;10.95;9.30;;;;;;;26.77;100.00;101330.47;3600532;39;20391;-64
2021/06/28 09:05:27;;;;;;;12.15;9.15;;;;;;;26.08;100.00;101333.38;3601349;39;20076;-62
2021/06/28 09:10:50;;;;;;;10.70;9.60;;;;;;;26.05;100.00;101331.91;3624960;39;20422;-63
2021/06/28 09:13:16;;;;;;;12.77;10.63;;;;;;;26.43;100.00;101338.28;3614795;39;20080;-64
2021/06/28 09:15:47;;;;;;;11.50;8.75;;;;;;;26.60;100.00;101332.97;3618604;39;20667;-64
2021/06/28 09:21:15;;;;;;;12.10;9.75;;;;;;;26.08;100.00;101330.63;3550677;40;20384;-63
2021/06/28 09:23:42;;;;;;;17.45;9.55;;;;;;;26.58;100.00;101329.63;3553720;40;20121;-62
2021/06/28 09:26:14;;;;;;;10.60;9.50;;;;;;;26.37;100.00;101328.19;3551564;40;20133;-63
2021/06/28 09:28:43;;;;;;;11.75;9.80;;;;;;;26.06;100.00;101327.25;3552504;40;20058;-63
2021/06/28 09:31:17;;;;;;;13.23;10.60;;;;;;;25.84;100.00;101316.59;3549590;40;20095;-62
2021/06/28 09:33:43;;;;;;;10.35;8.98;;;;;;;25.63;100.00;101322.53;3549677;40;20050;-64
2021/06/28 09:36:20;;;;;;;10.30;9.27;;;;;;;25.94;100.00;101327.13;3551361;40;20052;-62
2021/06/28 09:38:47;;;;;;;11.25;10.07;;;;;;;26.00;100.00;101328.13;3553133;40;20061;-63
2021/06/28 09:41:24;;;;;;;10.23;9.13;;;;;;;26.44;100.00;101322.56;3550724;40;20056;-63
2021/06/28 09:43:50;;;;;;;10.95;9.85;;;;;;;26.38;100.00;101318.81;3552295;40;20062;-63
2021/06/28 09:46:18;;;;;;;12.32;10.10;;;;;;;26.11;100.00;101323.81;3551893;40;20396;-62
2021/06/28 09:48:48;;;;;;;12.35;10.05;;;;;;;26.52;100.00;101325.88;3551827;40;20038;-62
2021/06/28 09:51:24;;;;;;;9.25;8.25;;;;;;;27.15;100.00;101323.78;3549389;40;20058;-64
2021/06/28 09:53:52;;;;;;;10.85;8.68;;;;;;;27.58;100.00;101327.38;3550146;40;20057;-63
2021/06/28 09:56:34;;;;;;;10.63;8.88;;;;;;;27.59;100.00;101324.38;3550971;40;20056;-62
2021/06/28 09:59:18;;;;;;;11.80;9.95;;;;;;;27.44;100.00;101326.75;3550444;40;20457;-63
2021/06/28 10:01:45;;;;;;;11.00;9.90;;;;;;;27.14;100.00;101327.59;3549479;40;20050;-63
2021/06/28 10:04:12;;;;;;;11.27;9.88;;;;;;;27.29;100.00;101329.94;3547530;40;20097;-63
2021/06/28 10:06:39;;;;;;;12.18;10.98;;;;;;;27.17;100.00;101324.38;3550976;40;20295;-63
2021/06/28 10:09:09;;;;;;;12.35;10.98;;;;;;;26.90;100.00;101338.56;3549452;40;20065;-63
2021/06/28 10:11:45;;;;;;;11.07;9.90;;;;;;;26.56;100.00;101343.66;3550304;40;20050;-63
2021/06/28 10:14:11;;;;;;;13.75;10.82;;;;;;;26.42;100.00;101335.78;3550311;40;20325;-64
2021/06/28 10:16:40;;;;;;;9.60;8.50;;;;;;;26.64;100.00;101334.22;3551573;40;20056;-62
2021/06/28 10:19:07;;;;;;;;;;;;;;;27.30;100.00;101331.63;3552452;40;20050;-62
2021/06/28 10:21:35;;;;;;;10.43;9.32;;;;;;;27.26;100.00;101320.19;3547653;40;19985;-62
2021/06/28 10:24:01;;;;;;;10.57;9.57;;;;;;;27.48;100.00;101321.59;3546507;40;20352;-63
2021/06/28 10:26:29;;;;;;;11.15;10.05;;;;;;;27.31;100.00;101335.22;3544512;40;20056;-63
2021/06/28 10:28:57;;;;;;;11.48;10.30;;;;;;;26.36;100.00;101332.00;3544683;40;20208;-62
2021/06/28 10:31:24;;;;;;;14.02;10.75;;;;;;;26.69;100.00;101339.06;3541627;40;20073;-63
2021/06/28 10:33:57;;;;;;;12.07;10.00;;;;;;;26.79;100.00;101322.78;3543960;40;20136;-62
2021/06/28 10:36:31;;;;;;;10.20;9.15;;;;;;;27.04;100.00;101328.16;3543466;40;20050;-62
2021/06/28 10:38:58;;;;;;;10.20;9.23;;;;;;;26.98;100.00;101328.28;3544510;40;20524;-62
2021/06/28 10:41:36;;;;;;;12.93;10.32;;;;;;;26.79;100.00;101324.72;3543668;40;20086;-63
2021/06/28 10:44:05;;;;;;;10.55;9.18;;;;;;;26.65;100.00;101324.88;3544550;40;20057;-63
2021/06/28 10:46:35;;;;;;;10.48;9.38;;;;;;;26.71;100.00;101323.13;3545716;40;20058;-62
2021/06/28 10:49:01;;;;;;;12.40;10.70;;;;;;;25.95;100.00;101328.78;3544891;40;20064;-62
2021/06/28 10:51:39;;;;;;;10.50;9.38;;;;;;;26.05;100.00;101336.59;3543662;40;20050;-63
2021/06/28 10:54:06;;;;;;;11.57;10.38;;;;;;;25.38;100.00;101330.78;3544534;40;20094;-63
2021/06/28 10:56:53;;;;;;;12.73;10.07;;;;;;;25.73;100.00;101325.59;3543438;40;20433;-63
2021/06/28 10:59:26;;;;;;;10.80;9.30;;;;;;;25.29;100.00;101330.16;3543268;40;20050;-63
2021/06/28 11:02:10;;;;;;;10.55;9.43;;;;;;;25.84;100.00;101329.56;3543276;40;20073;-63
2021/06/28 11:04:40;;;;;;;12.77;9.43;;;;;;;25.84;100.00;101319.38;3543148;40;20055;-63
2021/06/28 11:07:15;;;;;;;14.07;9.15;;;;;;;26.10;100.00;101322.94;3543752;40;20055;-63
2021/06/28 11:09:43;;;;;;;9.20;8.38;;;;;;;26.16;100.00;101323.94;3539729;40;20044;-63
2021/06/28 11:12:33;;;;;;;10.60;9.55;;;;;;;25.80;100.00;101322.81;3544115;40;20410;-63
2021/06/28 11:15:07;;;;;;;10.40;9.18;;;;;;;25.77;100.00;101320.50;3545223;40;20609;-63